Time;durP1;ratioP1;P1;durP2;ratioP2;P2;SDS_P1;SDS_P2;PMS_P1;PMS_P2;Temp;Humidity;BMP_temperature;BMP_pressure;BME280_temperature;BME280_humidity;BME280_pressure;Samples;Min_cycle;Max_cycle;Signal;HPM_P1;HPM_P2
2024/03/12 00:01:47;;;;;;;67.13;32.95;;;;;;;11.68;62.17;100852.50;4916610;28;119579;-65
2024/03/12 00:04:14;;;;;;;64.72;33.08;;;;;;;11.69;62.09;100856.84;4923879;28;124115;-65
2024/03/12 00:06:42;;;;;;;60.42;31.63;;;;;;;11.71;62.13;100865.59;4909453;28;124011;-65
2024/03/12 00:09:09;;;;;;;61.53;31.80;;;;;;;11.74;62.21;100865.44;4908619;28;120342;-65
2024/03/12 00:11:37;;;;;;;60.92;31.67;;;;;;;11.74;62.02;100870.75;4920874;28;119766;-65
2024/03/12 00:14:04;;;;;;;57.67;31.17;;;;;;;11.73;62.16;100869.03;4917024;28;124432;-65
2024/03/12 00:16:32;;;;;;;64.07;31.88;;;;;;;11.71;62.01;100876.19;4909628;28;124668;-65
2024/03/12 00:19:02;;;;;;;63.83;31.25;;;;;;;11.71;62.26;100870.91;4914544;28;119301;-66
2024/03/12 00:21:31;;;;;;;59.10;29.85;;;;;;;11.69;62.14;100875.41;4900349;28;119218;-65
2024/03/12 00:23:58;;;;;;;53.53;29.40;;;;;;;11.67;62.04;100880.78;4910205;28;124636;-65
2024/03/12 00:26:28;;;;;;;51.22;28.80;;;;;;;11.67;62.25;100879.94;4915138;28;123817;-65
2024/03/12 00:28:56;;;;;;;55.20;29.13;;;;;;;11.66;62.11;100894.16;4917469;28;119304;-65
2024/03/12 00:31:24;;;;;;;55.10;29.45;;;;;;;11.65;62.17;100892.44;4909702;28;118669;-65
2024/03/12 00:33:52;;;;;;;57.95;29.65;;;;;;;11.65;62.18;100900.38;4933393;28;124107;-65
2024/03/12 00:36:20;;;;;;;51.75;28.73;;;;;;;11.66;62.17;100899.47;4901427;28;123978;-65
2024/03/12 00:38:48;;;;;;;59.00;30.58;;;;;;;11.67;62.19;100909.97;4918250;28;119361;-65
2024/03/12 00:41:15;;;;;;;56.22;29.73;;;;;;;11.66;62.15;100904.78;4921774;28;119094;-65
2024/03/12 00:43:43;;;;;;;54.22;29.00;;;;;;;11.66;62.18;100907.44;4912202;28;124143;-66
2024/03/12 00:46:11;;;;;;;59.08;30.98;;;;;;;11.65;62.09;100909.19;4918060;28;123890;-66
2024/03/12 00:48:38;;;;;;;57.95;29.45;;;;;;;11.64;62.26;100906.63;4918866;28;119896;-65
2024/03/12 00:51:08;;;;;;;54.42;29.42;;;;;;;11.61;62.35;100906.78;4920448;28;120291;-65
2024/03/12 00:53:36;;;;;;;61.95;30.85;;;;;;;11.60;62.32;100915.66;4913466;28;124382;-65
2024/03/12 00:56:04;;;;;;;58.38;28.77;;;;;;;11.59;62.28;100913.97;4912052;28;123850;-65
2024/03/12 00:58:33;;;;;;;58.47;29.40;;;;;;;11.57;62.37;100926.44;4919899;28;120297;-65
2024/03/12 01:01:01;;;;;;;58.83;30.42;;;;;;;11.56;62.51;100919.41;4901819;28;120043;-66
2024/03/12 01:03:29;;;;;;;62.58;29.00;;;;;;;11.57;62.53;100921.13;4914872;28;124788;-65
2024/03/12 01:05:56;;;;;;;62.13;30.83;;;;;;;11.57;62.48;100921.97;4910829;28;124421;-64
2024/03/12 01:08:24;;;;;;;64.60;32.50;;;;;;;11.58;62.63;100922.84;4922010;28;119556;-64
2024/03/12 01:10:52;;;;;;;65.40;32.67;;;;;;;11.58;62.53;100922.84;4921330;28;119559;-64
2024/03/12 01:13:20;;;;;;;63.65;32.72;;;;;;;11.60;62.58;100923.63;4921251;28;123143;-65
2024/03/12 01:15:48;;;;;;;63.72;31.27;;;;;;;11.60;62.49;100920.97;4902830;28;122179;-65
2024/03/12 01:18:15;;;;;;;64.05;30.85;;;;;;;11.62;62.35;100929.69;4907607;28;119562;-65
2024/03/12 01:20:44;;;;;;;60.50;31.60;;;;;;;11.60;62.58;100926.28;4913156;28;119187;-65
2024/03/12 01:23:13;;;;;;;61.88;31.15;;;;;;;11.61;62.80;100928.00;4908687;28;123778;-65
2024/03/12 01:25:42;;;;;;;64.03;31.65;;;;;;;11.61;62.69;100928.00;4908314;28;123901;-65
2024/03/12 01:28:12;;;;;;;63.95;31.58;;;;;;;11.62;62.64;100924.41;4907214;28;119282;-65
2024/03/12 01:30:40;;;;;;;65.70;31.50;;;;;;;11.61;62.59;100933.31;4908662;28;118238;-65
2024/03/12 01:33:07;;;;;;;66.63;32.90;;;;;;;11.60;62.58;100931.56;4906266;28;125746;-66
2024/03/12 01:35:40;;;;;;;65.43;30.67;;;;;;;11.57;62.68;100945.00;4906679;28;124703;-65
2024/03/12 01:38:08;;;;;;;65.50;32.03;;;;;;;11.55;62.64;100938.91;4906081;28;120261;-65
2024/03/12 01:40:41;;;;;;;66.97;33.33;;;;;;;11.55;62.74;100944.22;4904216;28;119511;-65
2024/03/12 01:43:09;;;;;;;65.13;32.88;;;;;;;11.54;62.51;100942.50;4908266;28;124722;-65
2024/03/12 01:45:38;;;;;;;64.88;32.22;;;;;;;11.54;62.99;100943.34;4903893;28;124000;-65
2024/03/12 01:48:07;;;;;;;62.75;31.83;;;;;;;11.56;62.99;100951.22;4906648;28;120338;-65
2024/03/12 01:50:38;;;;;;;62.80;32.55;;;;;;;11.56;62.92;100951.22;4904839;28;120515;-65
2024/03/12 01:53:06;;;;;;;69.90;32.67;;;;;;;11.57;62.86;100950.31;4903549;28;123707;-65
2024/03/12 01:55:42;;;;;;;63.50;31.83;;;;;;;11.58;63.00;100955.53;4906297;28;123843;-65
2024/03/12 01:58:16;;;;;;;66.57;31.30;;;;;;;11.59;63.04;100951.09;4926943;28;118352;-65
2024/03/12 02:00:45;;;;;;;66.53;32.75;;;;;;;11.59;63.01;100962.56;4910680;28;118876;-65
2024/03/12 02:03:14;;;;;;;70.97;30.95;;;;;;;11.60;63.05;100958.09;4913083;28;125063;-65
2024/03/12 02:05:41;;;;;;;71.38;33.22;;;;;;;11.60;62.81;100958.09;4911907;28;124567;-65
2024/03/12 02:08:11;;;;;;;62.65;30.85;;;;;;;11.59;62.90;100956.41;4909237;28;118501;-65
2024/03/12 02:10:38;;;;;;;65.65;31.73;;;;;;;11.59;63.11;100956.41;4908121;28;119956;-65
2024/03/12 02:13:06;;;;;;;66.70;32.55;;;;;;;11.59;63.12;100956.41;4919937;28;124040;-65
2024/03/12 02:15:34;;;;;;;62.03;31.05;;;;;;;11.59;62.99;100961.72;4905869;28;123983;-65
2024/03/12 02:18:02;;;;;;;62.67;30.85;;;;;;;11.61;63.10;100965.16;4911264;28;119787;-65
2024/03/12 02:20:29;;;;;;;58.97;30.30;;;;;;;11.61;63.06;100963.34;4902309;28;119443;-65
2024/03/12 02:22:58;;;;;;;60.90;30.33;;;;;;;11.62;63.00;100966.84;4911631;28;124108;-65
2024/03/12 02:25:27;;;;;;;60.15;30.38;;;;;;;11.64;63.06;100970.28;4923284;28;123014;-65
2024/03/12 02:27:56;;;;;;;53.45;28.98;;;;;;;11.61;63.09;100966.00;4928100;28;119373;-65
2024/03/12 02:30:25;;;;;;;53.10;27.83;;;;;;;11.61;63.09;100975.75;4911090;28;118767;-65
2024/03/12 02:32:52;;;;;;;51.17;27.77;;;;;;;11.63;63.06;100973.88;4901445;28;124187;-65
2024/03/12 02:35:20;;;;;;;53.00;28.00;;;;;;;11.63;63.07;100976.53;4907292;28;124051;-65
2024/03/12 02:37:47;;;;;;;49.92;27.35;;;;;;;11.62;62.98;100982.75;4916688;28;119507;-65
2024/03/12 02:40:15;;;;;;;47.97;26.83;;;;;;;11.60;63.19;100976.66;4905784;28;120914;-65
2024/03/12 02:42:45;;;;;;;51.58;26.58;;;;;;;11.59;63.10;100983.78;4907681;28;124804;-65
2024/03/12 02:45:15;;;;;;;48.05;25.67;;;;;;;11.59;63.07;100980.28;4918892;28;124643;-65
2024/03/12 02:47:44;;;;;;;50.67;26.67;;;;;;;11.57;63.14;100979.50;4924407;28;119566;-65
2024/03/12 02:50:15;;;;;;;52.03;27.63;;;;;;;11.56;63.19;100988.38;4915002;28;119144;-65
2024/03/12 02:52:44;;;;;;;49.38;26.50;;;;;;;11.56;63.31;100983.91;4909050;28;124538;-65
2024/03/12 02:55:13;;;;;;;51.42;27.05;;;;;;;11.57;63.32;100987.44;4914244;28;125281;-65
2024/03/12 02:57:41;;;;;;;53.75;27.55;;;;;;;11.58;63.33;100986.50;4917656;28;118795;-65
2024/03/12 03:00:12;;;;;;;44.47;26.50;;;;;;;11.60;63.41;100989.94;4891905;28;118437;-65
2024/03/12 03:02:43;;;;;;;50.53;25.83;;;;;;;11.62;63.17;100999.56;4918875;28;123825;-65
2024/03/12 03:05:12;;;;;;;46.22;24.98;;;;;;;11.62;63.33;100996.91;4909498;28;123977;-65
2024/03/12 03:07:40;;;;;;;46.67;24.58;;;;;;;11.61;63.33;100987.22;4924889;28;118380;-65
2024/03/12 03:10:09;;;;;;;45.65;24.48;;;;;;;11.61;63.29;100991.66;4912859;28;119985;-65
2024/03/12 03:12:37;;;;;;;46.38;24.35;;;;;;;11.59;63.27;100997.03;4905155;28;124151;-65
2024/03/12 03:15:05;;;;;;;46.47;24.52;;;;;;;11.59;63.22;100998.84;4918059;28;123061;-65
2024/03/12 03:17:33;;;;;;;41.42;23.83;;;;;;;11.60;63.35;101005.84;4901565;28;119691;-65
2024/03/12 03:20:00;;;;;;;46.35;24.58;;;;;;;11.59;63.33;100999.69;4920408;28;119228;-65
2024/03/12 03:22:28;;;;;;;46.05;24.80;;;;;;;11.59;63.06;101004.16;4909535;28;124146;-65
2024/03/12 03:24:55;;;;;;;45.60;24.25;;;;;;;11.56;63.30;100999.81;4926169;28;122985;-65
2024/03/12 03:27:23;;;;;;;40.85;22.95;;;;;;;11.56;62.99;100998.97;4918728;28;120337;-65
2024/03/12 03:29:51;;;;;;;42.45;22.20;;;;;;;11.56;63.46;101009.59;4915147;28;120679;-65
2024/03/12 03:32:20;;;;;;;40.45;21.38;;;;;;;11.53;63.29;101004.41;4917945;28;123004;-65
2024/03/12 03:34:48;;;;;;;36.00;20.38;;;;;;;11.50;63.39;101016.03;4902766;28;123664;-65
2024/03/12 03:37:15;;;;;;;42.88;21.63;;;;;;;11.48;63.46;101013.44;4913553;28;119369;-65
2024/03/12 03:39:42;;;;;;;40.45;21.00;;;;;;;11.46;63.47;101015.31;4895357;28;118230;-65
2024/03/12 03:42:10;;;;;;;38.30;20.52;;;;;;;11.45;63.42;101018.91;4912258;28;125015;-66
2024/03/12 03:44:38;;;;;;;38.63;19.77;;;;;;;11.43;63.45;101020.78;4920534;28;124090;-65
2024/03/12 03:47:05;;;;;;;35.63;19.75;;;;;;;11.42;63.46;101032.31;4899532;28;119252;-65
2024/03/12 03:49:33;;;;;;;40.72;20.25;;;;;;;11.42;63.53;101040.25;4913397;28;119296;-65
2024/03/12 03:52:01;;;;;;;39.22;20.58;;;;;;;11.41;63.47;101038.53;4911044;28;124105;-65
2024/03/12 03:54:28;;;;;;;41.33;21.17;;;;;;;11.41;63.38;101037.66;4904151;28;124605;-65
2024/03/12 03:56:56;;;;;;;37.80;20.67;;;;;;;11.41;63.54;101046.47;4906147;28;119681;-65
2024/03/12 03:59:24;;;;;;;46.67;22.40;;;;;;;11.40;63.44;101047.44;4900999;28;119954;-65
2024/03/12 04:01:52;;;;;;;42.53;21.83;;;;;;;11.39;63.47;101056.28;4913326;28;123143;-65
2024/03/12 04:04:19;;;;;;;42.92;21.65;;;;;;;11.37;63.44;101047.56;4909059;28;124748;-65
2024/03/12 04:06:47;;;;;;;42.80;21.38;;;;;;;11.35;63.35;101057.38;4911288;28;119260;-65
2024/03/12 04:09:20;;;;;;;44.25;22.45;;;;;;;11.35;63.41;101057.38;4904550;28;119401;-65
2024/03/12 04:11:48;;;;;;;46.20;23.17;;;;;;;11.34;63.24;101066.28;4900617;28;124097;-65
2024/03/12 04:14:17;;;;;;;45.00;23.52;;;;;;;11.33;63.42;101067.19;4902244;28;122331;-65
2024/03/12 04:16:45;;;;;;;47.35;23.92;;;;;;;11.32;63.55;101068.13;4906236;28;119148;-65
2024/03/12 04:19:13;;;;;;;45.28;22.77;;;;;;;11.30;63.63;101072.63;4902725;28;119913;-65
2024/03/12 04:21:41;;;;;;;50.00;24.90;;;;;;;11.28;63.64;101070.06;4903954;28;124116;-65
2024/03/12 04:24:10;;;;;;;42.85;22.67;;;;;;;11.26;63.50;101071.91;4909236;28;124116;-65
2024/03/12 04:26:39;;;;;;;42.75;22.65;;;;;;;11.24;63.45;101079.06;4905810;28;119305;-65
2024/03/12 04:29:07;;;;;;;49.20;23.40;;;;;;;11.24;63.45;101083.50;4913220;28;118934;-65
2024/03/12 04:31:34;;;;;;;53.42;23.58;;;;;;;11.23;63.63;101089.75;4927307;28;123553;-66
2024/03/12 04:34:02;;;;;;;49.63;23.38;;;;;;;11.24;63.70;101088.81;4914346;28;123799;-65
2024/03/12 04:36:32;;;;;;;50.75;22.50;;;;;;;11.24;63.70;101086.16;4904590;28;118343;-65
2024/03/12 04:38:59;;;;;;;48.63;22.77;;;;;;;11.23;63.74;101087.94;4906526;28;119495;-65
2024/03/12 04:41:27;;;;;;;42.08;21.75;;;;;;;11.22;63.56;101085.38;4904768;28;124034;-65
2024/03/12 04:43:54;;;;;;;50.17;22.60;;;;;;;11.22;63.68;101090.66;4908095;28;124630;-65
2024/03/12 04:46:22;;;;;;;47.03;21.05;;;;;;;11.22;63.77;101088.00;4909624;28;119106;-65
2024/03/12 04:48:49;;;;;;;41.08;21.05;;;;;;;11.22;63.49;101093.31;4911833;28;119086;-65
2024/03/12 04:51:17;;;;;;;44.78;22.55;;;;;;;11.23;63.79;101103.00;4907453;28;123990;-65
2024/03/12 04:53:45;;;;;;;50.85;22.05;;;;;;;11.22;63.55;101101.28;4907155;28;123951;-66
2024/03/12 04:56:16;;;;;;;51.92;22.25;;;;;;;11.21;63.54;101099.56;4905597;28;119365;-65
2024/03/12 04:58:44;;;;;;;51.00;23.10;;;;;;;11.20;63.42;101103.13;4911099;28;118619;-65
2024/03/12 05:01:11;;;;;;;47.83;23.60;;;;;;;11.18;63.69;101115.59;4917026;28;124741;-65
2024/03/12 05:03:39;;;;;;;49.85;24.27;;;;;;;11.18;63.44;101123.53;4910981;28;123877;-65
2024/03/12 05:06:08;;;;;;;59.67;24.58;;;;;;;11.17;63.54;101124.47;4914531;28;121112;-65
2024/03/12 05:08:35;;;;;;;50.72;24.45;;;;;;;11.17;63.69;101130.66;4907395;28;120389;-65
2024/03/12 05:11:03;;;;;;;45.97;22.55;;;;;;;11.18;63.45;101131.50;4910733;28;124245;-64
2024/03/12 05:13:31;;;;;;;47.53;21.58;;;;;;;11.19;63.57;101135.84;4913345;28;124018;-64
2024/03/12 05:15:59;;;;;;;55.22;23.27;;;;;;;11.19;63.53;101133.19;4913859;28;119416;-64
2024/03/12 05:18:26;;;;;;;42.28;22.27;;;;;;;11.19;63.44;101143.81;4906671;28;119382;-64
2024/03/12 05:20:53;;;;;;;46.78;23.13;;;;;;;11.19;63.50;101146.47;4930241;28;123779;-63
2024/03/12 05:23:21;;;;;;;54.78;24.58;;;;;;;11.19;63.68;101154.41;4909854;28;123756;-63
2024/03/12 05:25:51;;;;;;;46.60;22.75;;;;;;;11.18;63.39;101147.41;4908457;28;120769;-63
2024/03/12 05:28:20;;;;;;;46.80;22.30;;;;;;;11.17;63.71;101150.97;4909116;28;118630;-63
2024/03/12 05:30:49;;;;;;;49.17;22.70;;;;;;;11.18;63.43;101163.31;4909495;28;124250;-63
2024/03/12 05:33:27;;;;;;;49.55;22.02;;;;;;;11.17;63.53;101156.28;4910765;28;124034;-64
2024/03/12 05:35:56;;;;;;;49.22;22.77;;;;;;;11.18;63.62;101168.63;4909299;28;119356;-63
2024/03/12 05:38:44;;;;;;;49.80;22.02;;;;;;;11.16;63.63;101170.47;4907660;28;119113;-64
2024/03/12 05:49:15;;;;;;;42.22;19.98;;;;;;;11.15;63.58;101187.28;4915338;28;119383;-63
2024/03/12 05:51:43;;;;;;;42.78;20.35;;;;;;;11.14;63.67;101177.63;4910756;28;124077;-63
2024/03/12 05:54:11;;;;;;;46.97;20.33;;;;;;;11.14;63.40;101182.94;4912668;28;124446;-63
2024/03/12 05:56:39;;;;;;;45.05;20.65;;;;;;;11.16;63.64;101191.69;4927616;28;96918;-63
2024/03/12 05:59:07;;;;;;;31.77;11.70;;;;;;;11.16;63.44;101191.69;4918970;28;119911;-63
2024/03/12 06:01:34;;;;;;;28.83;11.18;;;;;;;11.16;63.60;101196.97;4918899;28;124280;-63
2024/03/12 06:04:04;;;;;;;32.22;10.80;;;;;;;11.16;63.45;101197.84;4906573;28;124660;-63
2024/03/12 06:06:32;;;;;;;30.88;10.60;;;;;;;11.14;63.21;101202.34;4914083;28;119226;-63
2024/03/12 06:09:00;;;;;;;32.53;11.32;;;;;;;11.14;63.44;101209.44;4907310;28;119740;-63
2024/03/12 06:11:28;;;;;;;29.42;10.88;;;;;;;11.14;63.06;101204.13;4905060;28;122836;-63
2024/03/12 06:13:57;;;;;;;24.92;10.40;;;;;;;11.15;63.16;101216.44;4906887;28;123071;-63
2024/03/12 06:16:30;;;;;;;26.42;10.52;;;;;;;11.15;63.11;101216.44;4918457;28;118300;-63
2024/03/12 06:18:57;;;;;;;30.65;10.30;;;;;;;11.16;63.07;101213.75;4908780;28;119371;-63
2024/03/12 06:21:25;;;;;;;29.27;10.40;;;;;;;11.15;63.10;101216.44;4914768;28;123261;-64
2024/03/12 06:23:53;;;;;;;26.48;10.20;;;;;;;11.14;63.08;101222.69;4907761;28;123946;-63
2024/03/12 06:26:21;;;;;;;24.48;10.43;;;;;;;11.15;63.30;101229.72;4899716;28;118480;-63
2024/03/12 06:28:49;;;;;;;28.27;9.73;;;;;;;11.14;63.06;101228.00;4905664;28;119037;-63
2024/03/12 06:31:18;;;;;;;26.45;10.05;;;;;;;11.15;63.04;101229.72;4908150;28;124153;-63
2024/03/12 06:33:46;;;;;;;29.95;10.18;;;;;;;11.15;63.18;101237.66;4909794;28;124309;-63
2024/03/12 06:36:14;;;;;;;28.45;9.85;;;;;;;11.14;63.03;101235.94;4899550;28;118263;-64
2024/03/12 06:38:41;;;;;;;23.90;9.63;;;;;;;11.13;62.98;101239.50;4907031;28;118812;-64
2024/03/12 06:41:12;;;;;;;37.10;10.85;;;;;;;11.12;62.96;101243.97;4907627;28;124644;-63
2024/03/12 06:43:40;;;;;;;37.33;10.85;;;;;;;11.12;63.07;101249.25;4902521;28;124240;-63
2024/03/12 06:46:19;;;;;;;30.77;9.75;;;;;;;11.14;63.01;101251.84;4905808;28;120554;-63
2024/03/12 06:48:48;;;;;;;27.60;10.02;;;;;;;11.13;62.92;101260.72;4925109;28;120263;-63
2024/03/12 06:51:15;;;;;;;36.47;10.52;;;;;;;11.11;62.96;101252.81;4907993;28;123226;-63
2024/03/12 06:53:44;;;;;;;32.05;9.98;;;;;;;11.10;62.90;101257.28;4910910;28;124230;-64
2024/03/12 06:56:11;;;;;;;28.85;10.15;;;;;;;11.09;62.98;101255.56;4941169;22;119501;-63
2024/03/12 06:58:44;;;;;;;28.75;9.73;;;;;;;11.09;62.99;101255.56;4932159;28;118917;-63
2024/03/12 07:01:13;;;;;;;27.80;9.63;;;;;;;11.10;63.03;101257.28;4921873;28;124165;-63
2024/03/12 07:03:42;;;;;;;34.35;10.27;;;;;;;11.11;63.05;101258.13;4913092;28;123759;-63
2024/03/12 07:06:11;;;;;;;25.38;9.80;;;;;;;11.10;62.90;101262.56;4909037;28;119385;-63
2024/03/12 07:08:39;;;;;;;25.73;9.32;;;;;;;11.13;63.06;101266.03;4905224;28;119082;-63
2024/03/12 07:11:08;;;;;;;29.25;9.95;;;;;;;11.15;63.07;101264.16;4901681;28;124077;-63
2024/03/12 07:13:39;;;;;;;23.77;8.65;;;;;;;11.15;62.93;101269.47;4912901;28;123832;-63
2024/03/12 07:16:09;;;;;;;26.58;9.93;;;;;;;11.16;62.93;101273.88;4906631;28;119283;-63
2024/03/12 07:18:38;;;;;;;26.05;9.32;;;;;;;11.16;62.62;101271.22;4900717;28;119403;-63
2024/03/12 07:21:06;;;;;;;24.08;8.75;;;;;;;11.19;63.02;101286.97;4898473;28;124162;-63
2024/03/12 07:23:36;;;;;;;24.58;8.80;;;;;;;11.20;62.89;101286.06;4901594;28;123337;-63
2024/03/12 07:26:05;;;;;;;25.95;8.48;;;;;;;11.22;62.97;101292.16;4916557;28;119484;-63
2024/03/12 07:28:32;;;;;;;20.02;7.82;;;;;;;11.26;62.78;101296.41;4897249;28;119382;-64
2024/03/12 07:31:00;;;;;;;22.33;8.15;;;;;;;11.28;62.75;101291.91;4899737;28;124567;-64
2024/03/12 07:33:27;;;;;;;21.63;7.85;;;;;;;11.30;62.77;101290.06;4908104;28;123816;-64
2024/03/12 07:35:55;;;;;;;20.55;7.75;;;;;;;11.30;62.96;101300.66;4897806;28;121544;-64
2024/03/12 07:38:24;;;;;;;19.65;7.53;;;;;;;11.32;62.76;101293.53;4916041;28;119986;-65
2024/03/12 07:40:52;;;;;;;21.77;7.55;;;;;;;11.34;62.82;101296.97;4914626;28;124115;-65
2024/03/12 07:43:20;;;;;;;19.52;7.60;;;;;;;11.37;63.11;101304.78;4905545;28;123597;-65
2024/03/12 07:45:47;;;;;;;20.15;7.60;;;;;;;11.39;62.80;101305.59;4888898;28;118510;-66
2024/03/12 07:48:15;;;;;;;23.02;7.55;;;;;;;11.39;62.74;101305.59;4918559;28;118463;-65
2024/03/12 07:50:44;;;;;;;19.05;7.03;;;;;;;11.42;62.89;101310.78;4919750;28;124289;-65
2024/03/12 07:53:12;;;;;;;22.02;7.78;;;;;;;11.44;62.82;101314.22;4905502;28;123923;-65
2024/03/12 07:55:42;;;;;;;16.35;7.05;;;;;;;11.46;62.89;101309.72;4903649;28;119578;-65
2024/03/12 07:58:10;;;;;;;18.85;7.45;;;;;;;11.47;62.72;101308.81;4906620;28;118016;-65
2024/03/12 08:00:38;;;;;;;21.92;7.72;;;;;;;11.50;62.66;101313.97;4907867;28;124662;-65
2024/03/12 08:03:07;;;;;;;22.17;7.43;;;;;;;11.49;62.52;101317.56;4906777;28;124693;-65
2024/03/12 08:05:34;;;;;;;16.92;6.75;;;;;;;11.50;62.64;101318.41;4910553;28;119238;-65
2024/03/12 08:08:06;;;;;;;20.23;7.80;;;;;;;11.49;62.61;101322.00;4898146;28;119373;-65
2024/03/12 08:10:33;;;;;;;19.38;7.07;;;;;;;11.49;62.82;101324.66;4898450;28;123658;-65
2024/03/12 08:13:01;;;;;;;17.10;7.25;;;;;;;11.49;62.85;101322.88;4905668;28;122959;-65
2024/03/12 08:15:29;;;;;;;16.65;6.63;;;;;;;11.51;62.63;101322.81;4907435;28;119858;-65
2024/03/12 08:17:56;;;;;;;15.13;7.47;;;;;;;11.53;62.65;101333.34;4908437;28;119441;-64
2024/03/12 08:20:36;;;;;;;17.73;6.95;;;;;;;11.55;62.65;101328.84;4913600;28;124866;-65
2024/03/12 08:23:04;;;;;;;15.38;6.63;;;;;;;11.57;62.62;101334.97;4908364;28;123897;-65
2024/03/12 08:25:32;;;;;;;19.13;7.22;;;;;;;11.56;62.62;101334.06;4922951;28;120310;-64
2024/03/12 08:28:16;;;;;;;21.05;7.03;;;;;;;11.58;62.76;101334.00;4905389;28;120292;-65
2024/03/12 08:30:46;;;;;;;20.92;7.05;;;;;;;11.60;62.51;101338.34;4906775;28;124111;-65
2024/03/12 08:33:13;;;;;;;19.08;7.60;;;;;;;11.63;62.80;101340.84;4909840;28;126223;-65
2024/03/12 08:35:41;;;;;;;20.25;7.78;;;;;;;11.65;62.61;101351.41;4908889;28;120128;-65
2024/03/12 08:38:09;;;;;;;17.20;7.88;;;;;;;11.69;62.60;101345.03;4915083;28;119915;-65
2024/03/12 08:40:36;;;;;;;20.15;7.45;;;;;;;11.70;62.52;101349.44;4917339;28;124339;-65
2024/03/12 08:43:04;;;;;;;20.02;7.65;;;;;;;11.70;62.45;101352.09;4907003;28;123982;-65
2024/03/12 08:45:39;;;;;;;19.55;7.90;;;;;;;11.69;62.59;101350.34;4910262;28;119405;-65
2024/03/12 08:48:07;;;;;;;19.98;7.88;;;;;;;11.70;62.35;101354.75;4924672;28;118544;-64
2024/03/12 08:50:34;;;;;;;20.35;7.43;;;;;;;11.68;62.55;101348.66;4906440;28;124832;-65
2024/03/12 08:53:02;;;;;;;20.30;7.93;;;;;;;11.67;62.48;101352.22;4918034;28;124048;-66
2024/03/12 08:55:29;;;;;;;20.85;8.05;;;;;;;11.67;62.47;101360.16;4910456;28;120046;-62
2024/03/12 08:57:57;;;;;;;20.13;7.85;;;;;;;11.68;62.57;101359.25;4905743;28;118897;-62
2024/03/12 09:00:26;;;;;;;19.35;7.50;;;;;;;11.67;62.60;101358.38;4905618;28;124021;-65
2024/03/12 09:02:56;;;;;;;18.23;6.95;;;;;;;11.69;62.61;101363.63;4915389;28;124142;-65
2024/03/12 09:05:23;;;;;;;21.35;8.05;;;;;;;11.72;62.55;101366.16;4902776;28;119188;-65
2024/03/12 09:07:52;;;;;;;19.05;7.93;;;;;;;11.74;62.53;101364.31;4909076;28;118990;-65
2024/03/12 09:10:19;;;;;;;19.92;8.10;;;;;;;11.77;62.53;101369.50;4900710;28;124334;-65
2024/03/12 09:12:47;;;;;;;17.73;7.80;;;;;;;11.79;62.55;101362.31;4898337;28;124439;-65
2024/03/12 09:15:16;;;;;;;20.63;7.63;;;;;;;11.82;62.50;101364.84;4903996;28;120351;-64
2024/03/12 09:17:43;;;;;;;21.33;8.15;;;;;;;11.84;62.60;101370.94;4899753;28;120896;-65
2024/03/12 09:20:11;;;;;;;20.48;7.97;;;;;;;11.87;62.64;101370.81;4908589;28;123337;-65
2024/03/12 09:22:39;;;;;;;22.23;8.32;;;;;;;11.92;62.31;101372.44;4907576;28;123038;-65
2024/03/12 09:25:08;;;;;;;20.60;7.70;;;;;;;11.94;62.46;101375.91;4907346;28;119259;-65
2024/03/12 09:27:36;;;;;;;19.25;7.85;;;;;;;11.97;62.62;101375.78;4906269;28;119523;-65
2024/03/12 09:30:05;;;;;;;21.83;8.27;;;;;;;12.00;62.52;101378.31;4900958;28;124160;-65
2024/03/12 09:32:36;;;;;;;22.13;7.88;;;;;;;12.04;62.63;101377.25;4910157;28;125492;-65
2024/03/12 09:35:04;;;;;;;24.50;8.63;;;;;;;12.10;62.58;101370.81;4901588;28;120465;-64
2024/03/12 09:37:35;;;;;;;26.58;9.07;;;;;;;12.14;62.60;101373.25;4903615;28;119170;-65
2024/03/12 09:40:06;;;;;;;25.65;8.85;;;;;;;12.19;62.59;101373.94;4907183;28;124063;-64
2024/03/12 09:42:36;;;;;;;23.42;8.93;;;;;;;12.23;62.41;101372.00;4897726;28;124382;-64
2024/03/12 09:45:06;;;;;;;24.35;8.93;;;;;;;12.27;62.62;101384.22;4899925;28;118520;-64
2024/03/12 09:47:35;;;;;;;21.48;8.90;;;;;;;12.33;62.53;101383.09;4907058;28;118976;-65
2024/03/12 09:50:11;;;;;;;21.75;9.05;;;;;;;12.37;62.50;101390.84;4913179;28;124804;-65
2024/03/12 09:52:39;;;;;;;22.83;9.52;;;;;;;12.42;62.41;101383.53;4903967;28;124393;-65
2024/03/12 09:55:10;;;;;;;23.70;10.25;;;;;;;12.47;62.14;101386.00;4906259;28;119101;-65
2024/03/12 09:57:38;;;;;;;23.58;9.50;;;;;;;12.49;62.39;101389.47;4915471;28;119706;-62
2024/03/12 10:00:11;;;;;;;22.90;9.18;;;;;;;12.56;62.42;101390.88;4903023;28;124877;-62
2024/03/12 10:02:39;;;;;;;27.98;9.63;;;;;;;12.59;62.36;101385.44;4895853;28;123967;-62
2024/03/12 10:05:09;;;;;;;28.30;10.00;;;;;;;12.64;62.37;101383.47;4904318;28;120798;-62
2024/03/12 10:08:16;;;;;;;22.25;9.45;;;;;;;12.69;62.18;101395.66;4905495;28;120103;-62
2024/03/12 10:10:46;;;;;;;27.63;10.27;;;;;;;12.73;62.20;101397.25;4919521;28;124029;-62
2024/03/12 10:13:15;;;;;;;26.75;9.80;;;;;;;12.73;62.11;101391.94;4903350;28;124177;-62
2024/03/12 10:15:59;;;;;;;24.40;10.23;;;;;;;12.76;62.08;101391.81;4896548;28;118454;-62
2024/03/12 10:18:33;;;;;;;21.90;9.85;;;;;;;12.81;62.12;101392.47;4896708;28;119059;-62
2024/03/12 10:21:01;;;;;;;25.42;9.98;;;;;;;12.87;62.17;101389.53;4901958;28;124806;-62
2024/03/12 10:23:31;;;;;;;25.73;10.35;;;;;;;12.94;62.28;101385.66;4913338;28;123802;-62
2024/03/12 10:26:12;;;;;;;26.63;11.25;;;;;;;12.99;62.15;101382.75;4903361;28;119486;-62
2024/03/12 10:28:41;;;;;;;28.08;11.13;;;;;;;13.05;62.03;101382.47;4902779;28;118401;-62
2024/03/12 10:31:11;;;;;;;29.80;10.80;;;;;;;13.13;62.01;101384.78;4904230;28;124120;-62
2024/03/12 10:33:48;;;;;;;28.88;12.52;;;;;;;13.16;61.82;101390.81;4919877;28;123853;-62
2024/03/12 10:36:34;;;;;;;28.27;11.23;;;;;;;13.23;61.84;101388.75;4908571;28;118418;-62
2024/03/12 10:39:12;;;;;;;28.42;11.82;;;;;;;13.30;61.99;101386.63;4910330;28;119238;-62
2024/03/12 10:41:45;;;;;;;33.03;13.43;;;;;;;13.37;61.78;101399.63;4903961;28;124343;-62
2024/03/12 10:44:12;;;;;;;31.98;14.23;;;;;;;13.43;61.49;101399.31;4909994;28;125387;-63
2024/03/12 10:46:43;;;;;;;30.27;13.90;;;;;;;13.44;61.16;101401.03;4911145;28;118562;-67
2024/03/12 10:49:12;;;;;;;27.92;12.63;;;;;;;13.47;61.37;101404.47;4905283;28;119379;-63
2024/03/12 10:51:42;;;;;;;30.38;13.52;;;;;;;13.50;61.18;101399.03;4898660;28;124264;-63
2024/03/12 10:54:13;;;;;;;29.92;12.70;;;;;;;13.56;61.07;101398.72;4889286;28;122946;-63
2024/03/12 10:56:46;;;;;;;28.60;13.60;;;;;;;13.58;60.92;101407.47;4930176;28;119952;-63
2024/03/12 10:59:16;;;;;;;34.42;13.93;;;;;;;13.57;60.75;101406.63;4916958;28;120042;-64
2024/03/12 11:01:44;;;;;;;30.40;13.15;;;;;;;13.55;60.46;101407.66;4903238;28;123000;-65
2024/03/12 11:04:14;;;;;;;29.55;13.52;;;;;;;13.53;60.42;101409.53;4918414;28;124524;-65
2024/03/12 11:06:45;;;;;;;31.13;13.70;;;;;;;13.50;60.30;101410.53;4903664;28;119625;-65
2024/03/12 11:09:21;;;;;;;28.45;12.80;;;;;;;13.49;60.24;101410.63;4906340;28;119074;-64
2024/03/12 11:11:49;;;;;;;32.88;13.40;;;;;;;13.46;60.20;101408.94;4898583;28;124522;-65
2024/03/12 11:14:16;;;;;;;29.85;13.57;;;;;;;13.47;60.13;101412.47;4907638;28;124451;-65
2024/03/12 11:16:44;;;;;;;31.55;14.07;;;;;;;13.44;60.07;101417.00;4902794;28;119392;-65
2024/03/12 11:19:20;;;;;;;31.20;14.60;;;;;;;13.41;60.03;101411.84;4902575;28;118310;-65
2024/03/12 11:21:50;;;;;;;33.90;13.48;;;;;;;13.40;60.03;101410.09;4908653;28;125168;-64